createdAt,value
2022-10-03T00:00:29.071Z,92.73
2022-10-03T00:02:36.553Z,92.53
2022-10-03T00:04:40.983Z,92.47
2022-10-03T00:06:48.857Z,92.51
2022-10-03T00:09:12.166Z,92.43
2022-10-03T00:11:52.450Z,92.81
2022-10-03T00:14:13.184Z,92.71
2022-10-03T00:16:29.683Z,92.97
2022-10-03T00:18:43.453Z,92.92
2022-10-03T00:21:14.506Z,93.02
2022-10-03T00:23:40.774Z,93.26
2022-10-03T00:25:54.382Z,93.21
2022-10-03T00:28:17.253Z,93.26
2022-10-03T00:30:25.105Z,93.41
2022-10-03T00:32:35.843Z,93.34
2022-10-03T00:35:08.030Z,93.61
2022-10-03T00:37:35.599Z,93.72
2022-10-03T00:40:02.003Z,93.84
2022-10-03T00:42:07.182Z,94.23
2022-10-03T00:44:27.023Z,93.80
2022-10-03T00:46:49.801Z,93.90
2022-10-03T00:49:15.853Z,93.76
2022-10-03T00:51:39.534Z,93.59
2022-10-03T00:54:12.745Z,93.74
2022-10-03T00:56:15.431Z,93.96
2022-10-03T00:58:45.374Z,93.88
2022-10-03T01:00:51.433Z,93.76
2022-10-03T01:03:08.060Z,94.08
2022-10-03T01:05:36.460Z,94.10
2022-10-03T01:07:58.261Z,93.85
2022-10-03T01:10:18.321Z,93.71
2022-10-03T01:12:41.049Z,93.91
2022-10-03T01:14:52.399Z,93.99
2022-10-03T01:17:32.404Z,93.70
2022-10-03T01:19:37.530Z,94.25
2022-10-03T01:21:47.291Z,94.29
2022-10-03T01:23:54.983Z,94.49
2022-10-03T01:26:26.024Z,94.71
2022-10-03T01:29:16.361Z,94.33
2022-10-03T01:31:23.816Z,94.74
2022-10-03T01:33:32.031Z,94.82
2022-10-03T01:35:34.067Z,95.08
2022-10-03T01:37:35.458Z,95.05
2022-10-03T01:39:58.501Z,95.26
2022-10-03T01:42:03.391Z,95.36
2022-10-03T01:44:16.419Z,95.54
2022-10-03T01:46:23.738Z,95.45
2022-10-03T01:49:07.664Z,95.65
2022-10-03T01:51:16.805Z,95.83
2022-10-03T01:53:40.704Z,95.86
2022-10-03T01:56:12.521Z,95.95
2022-10-03T01:58:28.619Z,95.85
2022-10-03T02:00:47.709Z,95.66
2022-10-03T02:03:04.153Z,95.81
2022-10-03T02:05:12.942Z,95.79
2022-10-03T02:07:35.176Z,95.61
2022-10-03T02:10:02.530Z,95.65
2022-10-03T02:12:10.222Z,95.28
2022-10-03T02:14:25.461Z,94.95
2022-10-03T02:16:57.402Z,95.31
2022-10-03T02:19:07.080Z,95.10
2022-10-03T02:21:14.394Z,95.47
2022-10-03T02:23:36.774Z,95.20
2022-10-03T02:26:22.225Z,95.24
2022-10-03T02:28:28.364Z,95.37
2022-10-03T02:30:37.184Z,95.31
2022-10-03T02:33:10.945Z,95.01
2022-10-03T02:35:30.701Z,95.02
2022-10-03T02:37:46.625Z,94.94
2022-10-03T02:40:25.644Z,94.77
2022-10-03T02:43:04.904Z,94.65
2022-10-03T02:45:44.218Z,94.59
2022-10-03T02:48:30.794Z,94.49
2022-10-03T02:51:01.536Z,94.33
2022-10-03T02:53:27.707Z,94.45
2022-10-03T02:55:46.127Z,94.42
2022-10-03T02:58:18.197Z,94.33
2022-10-03T03:00:36.590Z,94.31
2022-10-03T03:02:58.833Z,94.36
2022-10-03T03:05:24.900Z,94.38
2022-10-03T03:07:44.750Z,94.43
2022-10-03T03:10:07.641Z,94.10
2022-10-03T03:12:30.864Z,94.29
2022-10-03T03:14:38.614Z,94.45
2022-10-03T03:17:17.412Z,94.26
2022-10-03T03:19:35.761Z,94.46
2022-10-03T03:22:10.030Z,94.45
2022-10-03T03:24:20.328Z,94.76
2022-10-03T03:26:51.517Z,94.39
2022-10-03T03:29:18.835Z,94.40
2022-10-03T03:31:39.242Z,94.55
2022-10-03T03:33:52.848Z,94.28
2022-10-03T03:36:07.639Z,94.49
2022-10-03T03:38:35.598Z,94.16
2022-10-03T03:40:56.515Z,94.05
2022-10-03T03:43:16.673Z,93.83
2022-10-03T03:45:41.018Z,93.52
2022-10-03T03:48:06.172Z,93.10
2022-10-03T03:50:20.207Z,92.09
2022-10-03T03:52:35.165Z,92.11
2022-10-03T03:55:13.241Z,92.16
2022-10-03T03:57:33.077Z,91.91
2022-10-03T04:00:13.813Z,92.28
2022-10-03T04:02:23.722Z,92.39
2022-10-03T04:04:31.149Z,92.26
2022-10-03T04:06:56.440Z,92.58
2022-10-03T04:09:19.078Z,93.14
2022-10-03T04:11:59.197Z,93.81
2022-10-03T04:14:11.171Z,94.03
2022-10-03T04:16:54.090Z,94.19
2022-10-03T04:19:14.167Z,94.87
2022-10-03T04:21:55.988Z,94.42
2022-10-03T04:24:23.293Z,95.37
2022-10-03T04:27:06.068Z,95.86
2022-10-03T04:29:36.300Z,96.60
2022-10-03T04:32:21.383Z,96.56
2022-10-03T04:34:23.060Z,96.88
2022-10-03T04:36:31.176Z,96.73
2022-10-03T04:38:49.092Z,97.06
2022-10-03T04:40:58.453Z,96.98
2022-10-03T04:43:15.785Z,96.67
2022-10-03T04:45:31.666Z,96.63
2022-10-03T04:47:52.882Z,96.82
2022-10-03T04:50:03.129Z,96.57
2022-10-03T04:52:19.911Z,96.56
2022-10-03T04:54:43.501Z,96.44
2022-10-03T04:57:01.623Z,95.80
2022-10-03T04:59:08.996Z,95.34
2022-10-03T05:01:26.397Z,95.13
2022-10-03T05:04:01.958Z,94.85
2022-10-03T05:06:22.727Z,95.26
2022-10-03T05:08:35.964Z,94.91
2022-10-03T05:10:56.720Z,93.88
2022-10-03T05:13:19.597Z,93.88
2022-10-03T05:15:27.287Z,94.17
2022-10-03T05:17:46.000Z,93.81
2022-10-03T05:20:02.957Z,94.07
2022-10-03T05:22:17.110Z,94.24
2022-10-03T05:24:49.515Z,94.16
2022-10-03T05:26:59.693Z,93.37
2022-10-03T05:29:21.947Z,92.88
2022-10-03T05:31:48.952Z,92.25
2022-10-03T05:34:17.848Z,91.26
2022-10-03T05:36:25.353Z,92.59
2022-10-03T05:38:53.324Z,93.37
2022-10-03T05:41:26.098Z,92.78
2022-10-03T05:43:58.154Z,92.75
2022-10-03T05:46:22.771Z,92.47
2022-10-03T05:48:43.493Z,91.76
2022-10-03T05:51:11.842Z,92.40
2022-10-03T05:53:50.845Z,92.79
2022-10-03T05:56:13.689Z,92.88
2022-10-03T05:58:26.021Z,93.07
2022-10-03T06:00:39.430Z,93.07
2022-10-03T06:02:52.971Z,93.26
2022-10-03T06:05:02.850Z,94.14
2022-10-03T06:07:04.515Z,94.61
2022-10-03T06:10:05.142Z,94.99
2022-10-03T06:12:07.430Z,95.23
2022-10-03T06:14:24.387Z,95.67
2022-10-03T06:16:43.925Z,95.72
2022-10-03T06:19:03.770Z,95.88
2022-10-03T06:21:32.354Z,95.87
2022-10-03T06:24:02.468Z,96.49
2022-10-03T06:26:22.258Z,96.37
2022-10-03T06:28:30.912Z,96.51
2022-10-03T06:30:38.220Z,96.83
2022-10-03T06:32:39.626Z,96.78
2022-10-03T06:35:01.012Z,96.71
2022-10-03T06:37:17.807Z,96.83
2022-10-03T06:39:57.528Z,96.95
2022-10-03T06:42:04.115Z,96.79
2022-10-03T06:44:42.977Z,96.85
2022-10-03T06:47:38.610Z,96.69
2022-10-03T06:49:49.107Z,96.55
2022-10-03T06:52:07.064Z,96.41
2022-10-03T06:54:23.446Z,96.47
2022-10-03T06:57:05.521Z,96.50
2022-10-03T06:59:29.861Z,96.36
2022-10-03T07:02:10.077Z,96.19
2022-10-03T07:04:29.506Z,96.07
2022-10-03T07:07:05.753Z,95.85
2022-10-03T07:09:25.225Z,95.89
2022-10-03T07:12:08.619Z,95.38
2022-10-03T07:14:43.821Z,95.02
2022-10-03T07:17:04.618Z,95.03
2022-10-03T07:19:29.236Z,94.35
2022-10-03T07:21:42.293Z,93.83
2022-10-03T07:23:52.860Z,93.60
2022-10-03T07:26:48.197Z,92.60
2022-10-03T07:28:56.669Z,92.53
2022-10-03T07:31:26.821Z,92.29
2022-10-03T07:33:33.381Z,92.29
2022-10-03T07:36:05.719Z,92.71
2022-10-03T07:38:58.181Z,92.74
2022-10-03T07:41:32.484Z,92.09
2022-10-03T07:44:02.083Z,92.17
2022-10-03T07:46:04.377Z,91.15
2022-10-03T07:48:36.734Z,90.97
2022-10-03T07:51:13.194Z,90.71
2022-10-03T07:53:26.428Z,90.97
2022-10-03T07:55:53.621Z,90.42
2022-10-03T07:58:13.055Z,90.08
2022-10-03T08:00:57.205Z,89.98
2022-10-03T08:03:24.922Z,89.50
2022-10-03T08:05:32.985Z,88.33
2022-10-03T08:07:55.771Z,88.02
2022-10-03T08:10:18.625Z,87.03
2022-10-03T08:12:51.941Z,86.34
2022-10-03T08:15:21.516Z,85.89
2022-10-03T08:17:38.881Z,85.39
2022-10-03T08:19:58.601Z,85.42
2022-10-03T08:22:20.373Z,85.29
2022-10-03T08:24:40.164Z,85.45
2022-10-03T08:27:02.826Z,85.71
2022-10-03T08:29:26.366Z,85.67
2022-10-03T08:31:49.174Z,85.84
2022-10-03T08:34:10.195Z,85.36
2022-10-03T08:36:29.559Z,85.13
2022-10-03T08:38:55.294Z,85.32
2022-10-03T08:41:08.172Z,85.01
2022-10-03T08:43:52.936Z,84.80
2022-10-03T08:46:17.872Z,83.76
2022-10-03T08:49:17.671Z,83.75
2022-10-03T08:51:38.203Z,82.80
2022-10-03T08:54:05.108Z,82.40
2022-10-03T08:56:35.863Z,82.02
2022-10-03T08:59:02.261Z,81.89
2022-10-03T09:01:28.135Z,81.41
2022-10-03T09:03:54.207Z,80.42
2022-10-03T09:06:12.193Z,79.24
2022-10-03T09:08:25.898Z,79.98
2022-10-03T09:10:30.197Z,79.68
2022-10-03T09:12:42.754Z,79.25
2022-10-03T09:15:25.077Z,79.57
2022-10-03T09:18:21.659Z,80.26
2022-10-03T09:20:41.051Z,79.69
2022-10-03T09:22:57.550Z,78.76
2022-10-03T09:25:07.819Z,77.60
2022-10-03T09:27:24.108Z,77.17
2022-10-03T09:29:33.822Z,77.80
2022-10-03T09:32:05.974Z,77.89
2022-10-03T09:34:25.331Z,77.63
2022-10-03T09:36:54.932Z,76.92
2022-10-03T09:39:25.211Z,76.81
2022-10-03T09:42:24.065Z,76.10
2022-10-03T09:44:34.359Z,75.32
2022-10-03T09:47:07.439Z,75.60
2022-10-03T09:49:15.259Z,75.56
2022-10-03T09:51:51.590Z,75.28
2022-10-03T09:54:23.838Z,75.28
2022-10-03T09:56:45.485Z,74.78
2022-10-03T09:58:55.960Z,75.25
2022-10-03T10:01:18.963Z,75.36
2022-10-03T10:03:38.983Z,75.31
2022-10-03T10:06:04.629Z,74.97
2022-10-03T10:08:25.049Z,74.91
2022-10-03T10:10:45.014Z,74.29
2022-10-03T10:13:20.583Z,74.69
2022-10-03T10:15:28.282Z,73.75
2022-10-03T10:17:47.001Z,71.53
2022-10-03T10:20:11.397Z,69.63
2022-10-03T10:22:50.525Z,69.12
2022-10-03T10:25:13.304Z,69.38
2022-10-03T10:27:33.189Z,69.92
2022-10-03T10:29:56.516Z,70.41
2022-10-03T10:32:23.693Z,69.82
2022-10-03T10:35:02.444Z,69.24
2022-10-03T10:37:24.914Z,67.88
2022-10-03T10:39:27.984Z,67.81
2022-10-03T10:41:44.261Z,67.79
2022-10-03T10:44:10.424Z,68.31
2022-10-03T10:46:30.433Z,66.67
2022-10-03T10:49:03.799Z,66.03
2022-10-03T10:51:36.151Z,67.31
2022-10-03T10:53:59.414Z,68.55
2022-10-03T10:56:27.601Z,68.52
2022-10-03T10:58:50.026Z,69.41
2022-10-03T11:01:28.740Z,69.71
2022-10-03T11:04:29.871Z,68.14
2022-10-03T11:06:50.158Z,68.51
2022-10-03T11:09:19.342Z,69.12
2022-10-03T11:11:56.742Z,68.59
2022-10-03T11:14:22.333Z,65.63
2022-10-03T11:16:39.821Z,62.83
2022-10-03T11:19:29.329Z,61.77
2022-10-03T11:21:51.805Z,61.28
2022-10-03T11:24:14.898Z,61.48
2022-10-03T11:26:34.548Z,61.43
2022-10-03T11:28:57.239Z,63.41
2022-10-03T11:31:07.375Z,64.04
2022-10-03T11:33:08.858Z,65.51
2022-10-03T11:35:52.351Z,66.65
2022-10-03T11:38:04.990Z,66.78
2022-10-03T11:40:40.690Z,66.01
2022-10-03T11:42:50.849Z,66.40
2022-10-03T11:44:59.483Z,63.89
2022-10-03T11:47:08.265Z,62.17
2022-10-03T11:49:21.481Z,62.23
2022-10-03T11:51:43.148Z,61.17
2022-10-03T11:54:07.622Z,62.48
2022-10-03T11:56:30.977Z,62.47
2022-10-03T11:58:47.659Z,63.15
2022-10-03T12:01:00.028Z,64.13
2022-10-03T12:03:26.924Z,64.72
2022-10-03T12:05:50.188Z,63.76
2022-10-03T12:08:40.589Z,63.04
2022-10-03T12:11:14.122Z,61.40
2022-10-03T12:13:30.342Z,61.08
2022-10-03T12:15:43.342Z,61.62
2022-10-03T12:17:55.805Z,62.15
2022-10-03T12:20:27.527Z,62.77
2022-10-03T12:22:53.470Z,62.81
2022-10-03T12:25:04.485Z,62.77
2022-10-03T12:27:09.831Z,62.78
2022-10-03T12:29:19.163Z,62.20
2022-10-03T12:31:36.097Z,61.59
2022-10-03T12:33:51.288Z,61.87
2022-10-03T12:36:04.938Z,62.59
2022-10-03T12:38:15.112Z,62.89
2022-10-03T12:40:32.178Z,63.43
2022-10-03T12:42:44.442Z,64.29
2022-10-03T12:44:59.773Z,63.70
2022-10-03T12:47:43.952Z,63.38
2022-10-03T12:50:12.675Z,64.04
2022-10-03T12:52:26.069Z,63.58
2022-10-03T12:54:39.484Z,64.74
2022-10-03T12:57:03.928Z,64.69
2022-10-03T12:59:11.159Z,64.83
2022-10-03T13:01:16.768Z,65.18
2022-10-03T13:03:26.042Z,65.79
2022-10-03T13:05:43.537Z,66.45
2022-10-03T13:08:22.777Z,67.20
2022-10-03T13:10:42.489Z,67.61
2022-10-03T13:13:13.254Z,67.69
2022-10-03T13:15:36.331Z,68.41
2022-10-03T13:18:27.282Z,68.05
2022-10-03T13:20:39.302Z,68.58
2022-10-03T13:23:23.531Z,68.38
2022-10-03T13:25:35.391Z,69.06
2022-10-03T13:27:47.718Z,68.05
2022-10-03T13:29:55.301Z,67.86
2022-10-03T13:31:56.871Z,68.03
2022-10-03T13:34:03.801Z,67.79
2022-10-03T13:36:09.858Z,68.11
2022-10-03T13:38:17.013Z,68.14
2022-10-03T13:40:19.791Z,68.62
2022-10-03T13:42:47.150Z,68.60
2022-10-03T13:44:59.414Z,68.80
2022-10-03T13:47:20.375Z,68.89
2022-10-03T13:50:15.292Z,69.11
2022-10-03T13:52:41.406Z,69.17
2022-10-03T13:55:01.307Z,69.43
2022-10-03T13:57:38.817Z,69.75
2022-10-03T13:59:53.614Z,70.30
2022-10-03T14:02:18.206Z,70.94
2022-10-03T14:04:22.417Z,71.73
2022-10-03T14:06:37.447Z,72.18
2022-10-03T14:09:10.488Z,72.41
2022-10-03T14:11:33.756Z,72.97
2022-10-03T14:13:43.434Z,72.92
2022-10-03T14:15:47.706Z,72.95
2022-10-03T14:18:03.843Z,72.99
2022-10-03T14:20:11.492Z,72.79
2022-10-03T14:22:40.352Z,71.83
2022-10-03T14:24:57.479Z,72.26
2022-10-03T14:27:27.260Z,72.09
2022-10-03T14:29:50.519Z,72.37
2022-10-03T14:31:57.177Z,71.88
2022-10-03T14:34:20.638Z,71.28
2022-10-03T14:36:41.891Z,71.23
2022-10-03T14:39:22.165Z,71.53
2022-10-03T14:41:32.411Z,71.20
2022-10-03T14:43:38.611Z,71.20
2022-10-03T14:45:46.733Z,71.09
2022-10-03T14:47:51.687Z,70.71
2022-10-03T14:49:59.250Z,70.72
2022-10-03T14:52:27.527Z,70.73
2022-10-03T14:54:31.409Z,70.75
2022-10-03T14:56:41.221Z,70.58
2022-10-03T14:58:52.265Z,70.82
2022-10-03T15:01:13.120Z,70.87
2022-10-03T15:03:17.370Z,71.12
2022-10-03T15:05:35.673Z,71.14
2022-10-03T15:07:55.916Z,71.50
2022-10-03T15:09:58.562Z,71.54
2022-10-03T15:12:05.643Z,71.67
2022-10-03T15:14:10.255Z,71.77
2022-10-03T15:16:17.787Z,71.82
2022-10-03T15:18:23.787Z,71.75
2022-10-03T15:20:31.099Z,72.07
2022-10-03T15:22:39.691Z,72.00
2022-10-03T15:24:41.611Z,72.02
2022-10-03T15:26:47.087Z,72.04
2022-10-03T15:28:53.749Z,71.90
2022-10-03T15:30:57.989Z,71.73
2022-10-03T15:33:17.143Z,71.75
2022-10-03T15:35:27.837Z,71.86
2022-10-03T15:37:35.330Z,71.92
2022-10-03T15:39:43.244Z,72.14
2022-10-03T15:41:52.998Z,72.21
2022-10-03T15:44:06.212Z,72.63
2022-10-03T15:46:28.115Z,72.85
2022-10-03T15:48:31.200Z,72.79
2022-10-03T15:50:40.866Z,72.56
2022-10-03T15:52:46.095Z,72.20
2022-10-03T15:54:56.898Z,72.39
2022-10-03T15:57:25.059Z,71.91
2022-10-03T15:59:34.565Z,72.25
2022-10-03T16:01:43.476Z,72.14
2022-10-03T16:03:53.790Z,72.12
2022-10-03T16:05:58.238Z,72.24
2022-10-03T16:08:06.883Z,72.44
2022-10-03T16:10:08.776Z,72.69
2022-10-03T16:12:38.505Z,72.78
2022-10-03T16:14:51.570Z,72.90
2022-10-03T16:17:00.383Z,73.17
2022-10-03T16:19:29.439Z,73.45
2022-10-03T16:21:49.088Z,73.57
2022-10-03T16:23:56.321Z,73.68
2022-10-03T16:26:03.340Z,74.11
2022-10-03T16:28:08.516Z,74.07
2022-10-03T16:30:09.945Z,74.45
2022-10-03T16:32:20.166Z,74.48
2022-10-03T16:34:25.577Z,74.85
2022-10-03T16:36:27.334Z,75.06
2022-10-03T16:38:36.482Z,75.19
2022-10-03T16:40:38.783Z,75.49
2022-10-03T16:42:44.566Z,75.43
2022-10-03T16:44:45.942Z,75.51
2022-10-03T16:46:48.279Z,75.71
2022-10-03T16:49:10.231Z,75.88
2022-10-03T16:51:33.474Z,75.76
2022-10-03T16:53:35.031Z,76.23
2022-10-03T16:55:45.744Z,76.08
2022-10-03T16:57:58.515Z,76.54
2022-10-03T17:00:06.631Z,76.34
2022-10-03T17:02:15.126Z,76.42
2022-10-03T17:04:24.354Z,76.79
2022-10-03T17:06:36.775Z,76.73
2022-10-03T17:08:46.322Z,76.84
2022-10-03T17:10:54.425Z,76.91
2022-10-03T17:13:03.611Z,76.95
2022-10-03T17:15:09.386Z,76.90
2022-10-03T17:17:11.216Z,76.99
2022-10-03T17:19:31.250Z,77.14
2022-10-03T17:21:33.488Z,77.63
2022-10-03T17:23:39.814Z,78.17
2022-10-03T17:25:57.313Z,78.34
2022-10-03T17:27:59.878Z,78.43
2022-10-03T17:30:29.772Z,78.20
2022-10-03T17:32:40.004Z,78.45
2022-10-03T17:34:58.776Z,78.30
2022-10-03T17:37:24.842Z,78.56
2022-10-03T17:39:38.507Z,78.91
2022-10-03T17:41:44.213Z,79.01
2022-10-03T17:44:07.285Z,78.82
2022-10-03T17:46:35.991Z,78.44
2022-10-03T17:49:17.666Z,78.85
2022-10-03T17:51:28.533Z,78.51
2022-10-03T17:53:33.842Z,79.47
2022-10-03T17:55:41.203Z,78.95
2022-10-03T17:57:51.715Z,79.06
2022-10-03T18:00:09.340Z,78.85
2022-10-03T18:02:21.433Z,79.13
2022-10-03T18:04:38.913Z,79.10
2022-10-03T18:06:50.304Z,78.97
2022-10-03T18:08:53.344Z,79.25
2022-10-03T18:10:57.943Z,79.25
2022-10-03T18:13:02.065Z,79.63
2022-10-03T18:15:16.308Z,79.69
2022-10-03T18:17:39.686Z,79.61
2022-10-03T18:20:06.059Z,79.41
2022-10-03T18:22:18.687Z,79.97
2022-10-03T18:24:38.219Z,79.67
2022-10-03T18:26:54.421Z,79.79
2022-10-03T18:29:16.977Z,79.49
2022-10-03T18:31:21.946Z,80.37
2022-10-03T18:33:27.489Z,79.89
2022-10-03T18:35:34.053Z,79.82
2022-10-03T18:37:41.346Z,80.13
2022-10-03T18:39:43.965Z,80.32
2022-10-03T18:41:49.476Z,80.60
2022-10-03T18:43:58.588Z,80.30
2022-10-03T18:46:30.216Z,79.76
2022-10-03T18:48:42.787Z,79.90
2022-10-03T18:50:44.178Z,79.90
2022-10-03T18:52:52.571Z,80.36
2022-10-03T18:55:02.740Z,80.29
2022-10-03T18:57:10.971Z,80.39
2022-10-03T18:59:27.393Z,79.95
2022-10-03T19:01:36.290Z,80.45
2022-10-03T19:03:44.299Z,80.52
2022-10-03T19:05:59.037Z,80.51
2022-10-03T19:08:10.659Z,80.50
2022-10-03T19:10:37.404Z,80.24
2022-10-03T19:12:46.636Z,79.95
2022-10-03T19:14:50.997Z,80.05
2022-10-03T19:17:17.219Z,79.85
2022-10-03T19:19:18.609Z,80.27
2022-10-03T19:21:22.423Z,80.39
2022-10-03T19:23:29.899Z,79.95
2022-10-03T19:25:33.675Z,80.40
2022-10-03T19:27:45.119Z,80.17
2022-10-03T19:29:51.175Z,80.40
2022-10-03T19:32:07.160Z,80.00
2022-10-03T19:34:21.932Z,80.33
2022-10-03T19:36:29.316Z,80.47
2022-10-03T19:38:42.438Z,80.42
2022-10-03T19:41:05.759Z,80.13
2022-10-03T19:43:25.830Z,80.44
2022-10-03T19:45:27.495Z,80.39
2022-10-03T19:47:33.511Z,80.46
2022-10-03T19:49:37.874Z,80.61
2022-10-03T19:51:39.544Z,80.40
2022-10-03T19:53:43.950Z,80.48
2022-10-03T19:55:47.827Z,80.46
2022-10-03T19:57:53.951Z,80.61
2022-10-03T20:00:01.047Z,80.59
2022-10-03T20:02:06.765Z,80.85
2022-10-03T20:04:08.983Z,80.61
2022-10-03T20:06:23.530Z,80.77
2022-10-03T20:08:51.987Z,80.31
2022-10-03T20:10:53.378Z,80.09
2022-10-03T20:12:55.561Z,80.06
2022-10-03T20:15:18.599Z,80.26
2022-10-03T20:17:22.763Z,80.52
2022-10-03T20:19:27.579Z,80.49
2022-10-03T20:21:29.909Z,80.62
2022-10-03T20:23:33.365Z,80.80
2022-10-03T20:25:43.208Z,80.60
2022-10-03T20:27:55.651Z,80.54
2022-10-03T20:30:06.467Z,80.80
2022-10-03T20:32:15.349Z,80.70
2022-10-03T20:34:23.112Z,80.78
2022-10-03T20:36:39.988Z,80.79
2022-10-03T20:38:51.108Z,80.97
2022-10-03T20:41:05.584Z,80.73
2022-10-03T20:43:41.333Z,80.61
2022-10-03T20:45:46.021Z,80.59
2022-10-03T20:48:02.473Z,80.59
2022-10-03T20:50:24.276Z,80.53
2022-10-03T20:52:26.576Z,80.88
2022-10-03T20:54:48.975Z,80.71
2022-10-03T20:56:58.517Z,80.73
2022-10-03T20:59:06.114Z,80.86
2022-10-03T21:01:15.426Z,80.76
2022-10-03T21:03:42.961Z,80.59
2022-10-03T21:05:51.998Z,80.42
2022-10-03T21:07:55.408Z,80.50
2022-10-03T21:10:05.939Z,80.85
2022-10-03T21:12:16.715Z,80.83
2022-10-03T21:14:28.949Z,80.76
2022-10-03T21:16:34.902Z,80.74
2022-10-03T21:18:40.760Z,80.68
2022-10-03T21:20:42.213Z,80.92
2022-10-03T21:22:47.107Z,81.03
2022-10-03T21:24:53.137Z,80.43
2022-10-03T21:26:59.180Z,80.70
2022-10-03T21:29:26.615Z,80.76
2022-10-03T21:31:38.499Z,81.07
2022-10-03T21:33:56.274Z,80.84
2022-10-03T21:36:09.224Z,80.98
2022-10-03T21:38:34.864Z,80.99
2022-10-03T21:41:06.946Z,80.89
2022-10-03T21:43:33.125Z,80.80
2022-10-03T21:45:52.681Z,80.58
2022-10-03T21:48:05.013Z,80.74
2022-10-03T21:50:08.308Z,80.74
2022-10-03T21:52:09.670Z,80.64
2022-10-03T21:54:35.190Z,80.77
2022-10-03T21:56:50.842Z,80.83
2022-10-03T21:59:04.535Z,80.57
2022-10-03T22:01:13.174Z,80.86
2022-10-03T22:03:27.913Z,80.17
2022-10-03T22:06:00.280Z,80.43
2022-10-03T22:08:43.082Z,80.47
2022-10-03T22:11:12.657Z,80.76
2022-10-03T22:13:19.015Z,80.53
2022-10-03T22:15:26.457Z,80.57
2022-10-03T22:17:45.550Z,80.68
2022-10-03T22:19:58.952Z,80.54
2022-10-03T22:22:31.705Z,80.31
2022-10-03T22:25:04.300Z,80.61
2022-10-03T22:27:15.291Z,81.03
2022-10-03T22:29:48.353Z,80.73
2022-10-03T22:31:52.513Z,80.14
2022-10-03T22:34:03.075Z,80.23
2022-10-03T22:36:04.733Z,80.78
2022-10-03T22:38:07.278Z,80.59
2022-10-03T22:40:09.769Z,80.82
2022-10-03T22:42:14.582Z,80.85
2022-10-03T22:44:19.663Z,80.73
2022-10-03T22:46:32.390Z,80.98
2022-10-03T22:48:44.615Z,80.43
2022-10-03T22:50:46.579Z,80.48
2022-10-03T22:52:51.736Z,81.30
2022-10-03T22:54:55.250Z,80.67
2022-10-03T22:57:01.196Z,80.51
2022-10-03T22:59:06.583Z,80.49
2022-10-03T23:01:08.211Z,80.96
2022-10-03T23:03:32.480Z,80.33
2022-10-03T23:06:01.907Z,80.34
2022-10-03T23:08:06.389Z,80.43
2022-10-03T23:10:14.280Z,80.66
2022-10-03T23:12:19.075Z,80.62
2022-10-03T23:14:24.483Z,81.56
2022-10-03T23:17:16.975Z,82.56
2022-10-03T23:19:40.308Z,82.79
2022-10-03T23:21:50.226Z,83.83
2022-10-03T23:23:54.692Z,85.61
2022-10-03T23:26:02.171Z,86.54
2022-10-03T23:28:31.342Z,87.78
2022-10-03T23:30:32.742Z,88.17
2022-10-03T23:32:49.249Z,87.90
2022-10-03T23:35:12.465Z,88.19
2022-10-03T23:37:13.842Z,89.05
2022-10-03T23:39:32.530Z,88.88
2022-10-03T23:41:43.395Z,89.09
2022-10-03T23:43:44.903Z,90.15
2022-10-03T23:45:49.606Z,90.46
2022-10-03T23:48:02.314Z,90.15
2022-10-03T23:50:05.958Z,88.62
2022-10-03T23:52:15.778Z,88.78
2022-10-03T23:54:19.216Z,89.47
2022-10-03T23:56:23.656Z,89.70
2022-10-03T23:58:30.906Z,90.23
